Arroyo Grande, California
Current Conditions -  °F | °C
As of 11:56 AM on Monday 26 Jan 2015 (Local Time) from KSBP Reporting Station
Broken Clouds Broken Clouds  
Wind Chill: 18°   Ceiling: 12000
Heat Index: 18°   Visibility: 10mi
Dew Point:   Wind: 0mph
Humidity: 48%   Direction: NA
Pressure: 29.98"   Gusts: NA
Location:  35.12°N, 120.57°W
Report Text: KSBP 261956Z 00000KT 10SM BKN120 18/07 A2998 RMK AO2 SLP151 T01830072
Loading
Personal Weather Stations






























Interactive Weather Map New forecast layout! Learn more

10-Day Weather Forecast

Advertisements
Track Severe Weather on mobile